sensor_id;sensor_type;location;lat;lon;timestamp;P1;durP1;ratioP1;P2;durP2;ratioP2
3006;SDS011;1513;47.650;10.720;2022-09-13T00:00:43;2.17;;;1.60;;
3006;SDS011;1513;47.650;10.720;2022-09-13T00:03:48;9.33;;;1.77;;
3006;SDS011;1513;47.650;10.720;2022-09-13T00:06:51;5.73;;;2.33;;
3006;SDS011;1513;47.650;10.720;2022-09-13T00:09:55;5.20;;;2.13;;
3006;SDS011;1513;47.650;10.720;2022-09-13T00:12:58;2.80;;;1.83;;
3006;SDS011;1513;47.650;10.720;2022-09-13T00:16:03;2.60;;;2.10;;
3006;SDS011;1513;47.650;10.720;2022-09-13T00:19:07;4.10;;;2.40;;
3006;SDS011;1513;47.650;10.720;2022-09-13T00:22:10;11.00;;;2.10;;
3006;SDS011;1513;47.650;10.720;2022-09-13T00:25:14;2.50;;;2.13;;
3006;SDS011;1513;47.650;10.720;2022-09-13T00:28:17;2.70;;;1.97;;
3006;SDS011;1513;47.650;10.720;2022-09-13T00:31:21;2.37;;;1.70;;
3006;SDS011;1513;47.650;10.720;2022-09-13T00:34:25;1.47;;;1.37;;
3006;SDS011;1513;47.650;10.720;2022-09-13T00:37:29;1.53;;;1.43;;
3006;SDS011;1513;47.650;10.720;2022-09-13T00:40:37;5.17;;;1.50;;
3006;SDS011;1513;47.650;10.720;2022-09-13T00:43:42;2.87;;;1.50;;
3006;SDS011;1513;47.650;10.720;2022-09-13T00:46:48;1.40;;;1.30;;
3006;SDS011;1513;47.650;10.720;2022-09-13T00:49:57;1.47;;;1.37;;
3006;SDS011;1513;47.650;10.720;2022-09-13T00:53:22;1.10;;;1.10;;
3006;SDS011;1513;47.650;10.720;2022-09-13T00:56:30;3.20;;;1.50;;
3006;SDS011;1513;47.650;10.720;2022-09-13T00:59:43;2.27;;;1.77;;
3006;SDS011;1513;47.650;10.720;2022-09-13T01:02:51;2.10;;;1.53;;
3006;SDS011;1513;47.650;10.720;2022-09-13T01:06:05;1.77;;;1.30;;
3006;SDS011;1513;47.650;10.720;2022-09-13T01:09:13;0.73;;;0.73;;
3006;SDS011;1513;47.650;10.720;2022-09-13T01:12:34;1.53;;;1.30;;
3006;SDS011;1513;47.650;10.720;2022-09-13T01:15:45;1.87;;;1.47;;
3006;SDS011;1513;47.650;10.720;2022-09-13T01:18:49;1.43;;;1.30;;
3006;SDS011;1513;47.650;10.720;2022-09-13T01:31:58;1.57;;;1.00;;
3006;SDS011;1513;47.650;10.720;2022-09-13T01:45:16;1.30;;;1.20;;
3006;SDS011;1513;47.650;10.720;2022-09-13T01:52:06;3.23;;;1.20;;
3006;SDS011;1513;47.650;10.720;2022-09-13T01:58:34;1.33;;;0.93;;
3006;SDS011;1513;47.650;10.720;2022-09-13T02:01:52;2.67;;;0.97;;
3006;SDS011;1513;47.650;10.720;2022-09-13T02:05:00;1.83;;;1.27;;
3006;SDS011;1513;47.650;10.720;2022-09-13T02:08:12;1.10;;;1.00;;
3006;SDS011;1513;47.650;10.720;2022-09-13T02:11:25;4.63;;;1.30;;
3006;SDS011;1513;47.650;10.720;2022-09-13T02:14:36;1.33;;;1.23;;
3006;SDS011;1513;47.650;10.720;2022-09-13T02:17:42;2.80;;;1.80;;
3006;SDS011;1513;47.650;10.720;2022-09-13T02:20:49;1.00;;;1.00;;
3006;SDS011;1513;47.650;10.720;2022-09-13T02:23:56;5.67;;;1.40;;
3006;SDS011;1513;47.650;10.720;2022-09-13T02:27:04;1.77;;;1.67;;
3006;SDS011;1513;47.650;10.720;2022-09-13T02:30:11;2.17;;;1.33;;
3006;SDS011;1513;47.650;10.720;2022-09-13T02:33:17;1.03;;;0.90;;
3006;SDS011;1513;47.650;10.720;2022-09-13T02:36:31;0.83;;;0.83;;
3006;SDS011;1513;47.650;10.720;2022-09-13T02:39:58;3.23;;;1.43;;
3006;SDS011;1513;47.650;10.720;2022-09-13T02:43:33;1.80;;;1.23;;
3006;SDS011;1513;47.650;10.720;2022-09-13T02:50:14;7.30;;;2.37;;
3006;SDS011;1513;47.650;10.720;2022-09-13T02:53:31;3.40;;;1.50;;
3006;SDS011;1513;47.650;10.720;2022-09-13T02:56:58;1.53;;;1.40;;
3006;SDS011;1513;47.650;10.720;2022-09-13T03:00:04;2.50;;;1.40;;
3006;SDS011;1513;47.650;10.720;2022-09-13T03:03:08;4.33;;;1.50;;
3006;SDS011;1513;47.650;10.720;2022-09-13T03:06:23;2.67;;;1.40;;
3006;SDS011;1513;47.650;10.720;2022-09-13T03:09:28;5.03;;;2.07;;
3006;SDS011;1513;47.650;10.720;2022-09-13T03:19:22;1.53;;;1.30;;
3006;SDS011;1513;47.650;10.720;2022-09-13T03:22:54;2.30;;;1.30;;
3006;SDS011;1513;47.650;10.720;2022-09-13T03:26:50;1.27;;;1.17;;
3006;SDS011;1513;47.650;10.720;2022-09-13T03:33:26;1.27;;;1.10;;
3006;SDS011;1513;47.650;10.720;2022-09-13T03:36:35;1.20;;;1.10;;
3006;SDS011;1513;47.650;10.720;2022-09-13T03:39:51;0.90;;;0.90;;
3006;SDS011;1513;47.650;10.720;2022-09-13T03:43:15;0.97;;;0.87;;
3006;SDS011;1513;47.650;10.720;2022-09-13T03:46:31;2.10;;;1.57;;
3006;SDS011;1513;47.650;10.720;2022-09-13T03:49:38;56.77;;;22.00;;
3006;SDS011;1513;47.650;10.720;2022-09-13T03:52:42;43.70;;;18.17;;
3006;SDS011;1513;47.650;10.720;2022-09-13T03:55:46;10.70;;;5.70;;
3006;SDS011;1513;47.650;10.720;2022-09-13T03:58:50;27.13;;;12.47;;
3006;SDS011;1513;47.650;10.720;2022-09-13T04:01:53;20.83;;;11.33;;
3006;SDS011;1513;47.650;10.720;2022-09-13T04:04:57;7.23;;;4.13;;
3006;SDS011;1513;47.650;10.720;2022-09-13T04:08:01;8.93;;;5.20;;
3006;SDS011;1513;47.650;10.720;2022-09-13T04:11:07;10.43;;;3.80;;
3006;SDS011;1513;47.650;10.720;2022-09-13T04:14:11;7.40;;;3.57;;
3006;SDS011;1513;47.650;10.720;2022-09-13T04:17:14;3.77;;;2.43;;
3006;SDS011;1513;47.650;10.720;2022-09-13T04:20:17;3.00;;;2.00;;
3006;SDS011;1513;47.650;10.720;2022-09-13T04:23:22;3.23;;;1.40;;
3006;SDS011;1513;47.650;10.720;2022-09-13T04:26:26;1.00;;;1.00;;
3006;SDS011;1513;47.650;10.720;2022-09-13T04:29:30;1.57;;;1.47;;
3006;SDS011;1513;47.650;10.720;2022-09-13T04:32:34;1.30;;;1.07;;
3006;SDS011;1513;47.650;10.720;2022-09-13T04:35:37;1.23;;;0.97;;
3006;SDS011;1513;47.650;10.720;2022-09-13T04:38:42;2.60;;;1.40;;
3006;SDS011;1513;47.650;10.720;2022-09-13T04:41:48;1.60;;;1.50;;
3006;SDS011;1513;47.650;10.720;2022-09-13T04:44:53;4.27;;;2.97;;
3006;SDS011;1513;47.650;10.720;2022-09-13T04:47:56;9.53;;;6.73;;
3006;SDS011;1513;47.650;10.720;2022-09-13T04:51:01;25.63;;;10.97;;
3006;SDS011;1513;47.650;10.720;2022-09-13T04:54:09;14.73;;;8.83;;
3006;SDS011;1513;47.650;10.720;2022-09-13T04:57:14;16.13;;;9.17;;
3006;SDS011;1513;47.650;10.720;2022-09-13T05:00:18;15.50;;;8.53;;
3006;SDS011;1513;47.650;10.720;2022-09-13T05:03:22;11.63;;;6.63;;
3006;SDS011;1513;47.650;10.720;2022-09-13T05:06:25;12.30;;;4.30;;
3006;SDS011;1513;47.650;10.720;2022-09-13T05:09:29;7.40;;;3.37;;
3006;SDS011;1513;47.650;10.720;2022-09-13T05:12:33;4.47;;;3.00;;
3006;SDS011;1513;47.650;10.720;2022-09-13T05:15:36;4.83;;;3.07;;
3006;SDS011;1513;47.650;10.720;2022-09-13T05:18:39;6.00;;;2.80;;
3006;SDS011;1513;47.650;10.720;2022-09-13T05:21:43;6.80;;;2.83;;
3006;SDS011;1513;47.650;10.720;2022-09-13T05:24:46;6.13;;;3.70;;
3006;SDS011;1513;47.650;10.720;2022-09-13T05:27:50;4.87;;;3.20;;
3006;SDS011;1513;47.650;10.720;2022-09-13T05:31:01;7.03;;;3.80;;
3006;SDS011;1513;47.650;10.720;2022-09-13T05:34:06;6.83;;;3.57;;
3006;SDS011;1513;47.650;10.720;2022-09-13T05:37:12;5.53;;;3.30;;
3006;SDS011;1513;47.650;10.720;2022-09-13T05:40:15;5.97;;;3.70;;
3006;SDS011;1513;47.650;10.720;2022-09-13T05:43:19;6.23;;;3.10;;
3006;SDS011;1513;47.650;10.720;2022-09-13T05:46:22;7.70;;;3.30;;
3006;SDS011;1513;47.650;10.720;2022-09-13T05:49:26;6.37;;;3.50;;
3006;SDS011;1513;47.650;10.720;2022-09-13T05:52:29;3.93;;;3.20;;
3006;SDS011;1513;47.650;10.720;2022-09-13T05:55:33;4.10;;;3.60;;
3006;SDS011;1513;47.650;10.720;2022-09-13T05:58:37;3.90;;;2.70;;
3006;SDS011;1513;47.650;10.720;2022-09-13T06:01:44;5.23;;;3.20;;
3006;SDS011;1513;47.650;10.720;2022-09-13T06:04:49;9.50;;;5.53;;
3006;SDS011;1513;47.650;10.720;2022-09-13T06:07:53;9.03;;;7.27;;
3006;SDS011;1513;47.650;10.720;2022-09-13T06:10:57;6.60;;;5.10;;
3006;SDS011;1513;47.650;10.720;2022-09-13T06:14:05;4.20;;;3.60;;
3006;SDS011;1513;47.650;10.720;2022-09-13T06:17:09;3.60;;;3.30;;
3006;SDS011;1513;47.650;10.720;2022-09-13T06:20:12;4.47;;;2.77;;
3006;SDS011;1513;47.650;10.720;2022-09-13T06:23:16;3.43;;;2.37;;
3006;SDS011;1513;47.650;10.720;2022-09-13T06:26:21;2.50;;;2.17;;
3006;SDS011;1513;47.650;10.720;2022-09-13T06:29:26;2.70;;;1.90;;
3006;SDS011;1513;47.650;10.720;2022-09-13T06:32:29;1.60;;;1.50;;
3006;SDS011;1513;47.650;10.720;2022-09-13T06:35:33;1.73;;;1.63;;
3006;SDS011;1513;47.650;10.720;2022-09-13T06:38:37;2.08;;;1.88;;
3006;SDS011;1513;47.650;10.720;2022-09-13T06:41:41;1.92;;;1.70;;
3006;SDS011;1513;47.650;10.720;2022-09-13T06:44:45;2.42;;;1.50;;
3006;SDS011;1513;47.650;10.720;2022-09-13T06:47:51;2.83;;;1.67;;
3006;SDS011;1513;47.650;10.720;2022-09-13T06:50:57;1.35;;;1.00;;
3006;SDS011;1513;47.650;10.720;2022-09-13T06:54:02;1.25;;;1.13;;
3006;SDS011;1513;47.650;10.720;2022-09-13T06:57:06;1.00;;;1.00;;
3006;SDS011;1513;47.650;10.720;2022-09-13T07:00:10;2.03;;;0.90;;
3006;SDS011;1513;47.650;10.720;2022-09-13T07:03:14;1.67;;;0.80;;
3006;SDS011;1513;47.650;10.720;2022-09-13T07:06:25;0.77;;;0.77;;
3006;SDS011;1513;47.650;10.720;2022-09-13T07:09:33;1.17;;;1.02;;
3006;SDS011;1513;47.650;10.720;2022-09-13T07:12:39;1.08;;;0.95;;
3006;SDS011;1513;47.650;10.720;2022-09-13T07:15:43;6.38;;;1.50;;
3006;SDS011;1513;47.650;10.720;2022-09-13T07:18:54;1.38;;;1.05;;
3006;SDS011;1513;47.650;10.720;2022-09-13T07:21:59;1.00;;;0.90;;
3006;SDS011;1513;47.650;10.720;2022-09-13T07:25:03;2.00;;;0.95;;
3006;SDS011;1513;47.650;10.720;2022-09-13T07:28:06;0.93;;;0.93;;
3006;SDS011;1513;47.650;10.720;2022-09-13T07:31:12;10.73;;;0.80;;
3006;SDS011;1513;47.650;10.720;2022-09-13T07:34:18;0.60;;;0.60;;
3006;SDS011;1513;47.650;10.720;2022-09-13T07:37:23;4.90;;;0.88;;
3006;SDS011;1513;47.650;10.720;2022-09-13T07:40:26;3.92;;;0.70;;
3006;SDS011;1513;47.650;10.720;2022-09-13T07:43:30;1.95;;;0.85;;
3006;SDS011;1513;47.650;10.720;2022-09-13T07:46:35;1.00;;;1.00;;
3006;SDS011;1513;47.650;10.720;2022-09-13T07:49:41;2.03;;;0.80;;
3006;SDS011;1513;47.650;10.720;2022-09-13T07:52:44;1.02;;;0.93;;
3006;SDS011;1513;47.650;10.720;2022-09-13T07:55:48;0.90;;;0.90;;
3006;SDS011;1513;47.650;10.720;2022-09-13T07:58:51;1.05;;;0.85;;
3006;SDS011;1513;47.650;10.720;2022-09-13T08:01:56;1.02;;;1.00;;
3006;SDS011;1513;47.650;10.720;2022-09-13T08:05:00;0.95;;;0.85;;
3006;SDS011;1513;47.650;10.720;2022-09-13T08:08:03;1.25;;;0.90;;
3006;SDS011;1513;47.650;10.720;2022-09-13T08:11:09;1.38;;;0.82;;
3006;SDS011;1513;47.650;10.720;2022-09-13T08:14:21;3.10;;;1.08;;
3006;SDS011;1513;47.650;10.720;2022-09-13T08:17:26;0.70;;;0.65;;
3006;SDS011;1513;47.650;10.720;2022-09-13T08:20:29;2.05;;;1.15;;
3006;SDS011;1513;47.650;10.720;2022-09-13T08:23:32;0.77;;;0.77;;
3006;SDS011;1513;47.650;10.720;2022-09-13T08:26:36;1.08;;;0.80;;
3006;SDS011;1513;47.650;10.720;2022-09-13T08:29:39;1.80;;;0.90;;
3006;SDS011;1513;47.650;10.720;2022-09-13T08:32:43;0.85;;;0.68;;
3006;SDS011;1513;47.650;10.720;2022-09-13T08:35:50;2.95;;;0.80;;
3006;SDS011;1513;47.650;10.720;2022-09-13T08:38:55;4.43;;;1.00;;
3006;SDS011;1513;47.650;10.720;2022-09-13T08:42:15;0.82;;;0.80;;
3006;SDS011;1513;47.650;10.720;2022-09-13T08:45:32;0.90;;;0.90;;
3006;SDS011;1513;47.650;10.720;2022-09-13T08:48:38;5.60;;;1.00;;
3006;SDS011;1513;47.650;10.720;2022-09-13T08:51:47;1.57;;;0.77;;
3006;SDS011;1513;47.650;10.720;2022-09-13T08:54:51;1.00;;;0.73;;
3006;SDS011;1513;47.650;10.720;2022-09-13T09:01:05;0.93;;;0.83;;
3006;SDS011;1513;47.650;10.720;2022-09-13T09:04:14;0.87;;;0.80;;
3006;SDS011;1513;47.650;10.720;2022-09-13T09:07:33;1.50;;;0.80;;
3006;SDS011;1513;47.650;10.720;2022-09-13T09:10:47;1.17;;;1.00;;
3006;SDS011;1513;47.650;10.720;2022-09-13T09:14:00;0.97;;;0.97;;
3006;SDS011;1513;47.650;10.720;2022-09-13T09:17:16;1.67;;;1.00;;
3006;SDS011;1513;47.650;10.720;2022-09-13T09:20:29;0.90;;;0.90;;
3006;SDS011;1513;47.650;10.720;2022-09-13T09:23:36;0.50;;;0.50;;
3006;SDS011;1513;47.650;10.720;2022-09-13T09:26:42;1.30;;;0.80;;
3006;SDS011;1513;47.650;10.720;2022-09-13T09:29:46;1.03;;;0.70;;
3006;SDS011;1513;47.650;10.720;2022-09-13T09:32:55;2.10;;;0.90;;
3006;SDS011;1513;47.650;10.720;2022-09-13T09:36:12;0.70;;;0.70;;
3006;SDS011;1513;47.650;10.720;2022-09-13T09:39:20;0.90;;;0.60;;
3006;SDS011;1513;47.650;10.720;2022-09-13T09:42:27;2.03;;;0.77;;
3006;SDS011;1513;47.650;10.720;2022-09-13T09:45:32;0.83;;;0.60;;
3006;SDS011;1513;47.650;10.720;2022-09-13T09:48:39;0.67;;;0.67;;
3006;SDS011;1513;47.650;10.720;2022-09-13T09:51:46;1.20;;;0.70;;
3006;SDS011;1513;47.650;10.720;2022-09-13T09:54:49;1.13;;;0.90;;
3006;SDS011;1513;47.650;10.720;2022-09-13T10:00:57;1.47;;;0.73;;
3006;SDS011;1513;47.650;10.720;2022-09-13T10:07:26;1.17;;;0.70;;
3006;SDS011;1513;47.650;10.720;2022-09-13T10:10:43;0.77;;;0.70;;
3006;SDS011;1513;47.650;10.720;2022-09-13T10:13:59;0.67;;;0.60;;
3006;SDS011;1513;47.650;10.720;2022-09-13T10:17:14;0.60;;;0.60;;
3006;SDS011;1513;47.650;10.720;2022-09-13T10:20:20;0.60;;;0.60;;
3006;SDS011;1513;47.650;10.720;2022-09-13T10:23:26;0.63;;;0.63;;
3006;SDS011;1513;47.650;10.720;2022-09-13T10:26:31;0.90;;;0.67;;
3006;SDS011;1513;47.650;10.720;2022-09-13T10:29:35;0.73;;;0.73;;
3006;SDS011;1513;47.650;10.720;2022-09-13T10:32:38;1.00;;;0.70;;
3006;SDS011;1513;47.650;10.720;2022-09-13T10:35:46;3.27;;;0.87;;
3006;SDS011;1513;47.650;10.720;2022-09-13T10:38:55;0.80;;;0.80;;
3006;SDS011;1513;47.650;10.720;2022-09-13T10:42:04;1.97;;;0.77;;
3006;SDS011;1513;47.650;10.720;2022-09-13T10:45:11;4.23;;;0.90;;
3006;SDS011;1513;47.650;10.720;2022-09-13T10:48:29;1.00;;;0.90;;
3006;SDS011;1513;47.650;10.720;2022-09-13T10:51:45;0.70;;;0.70;;
3006;SDS011;1513;47.650;10.720;2022-09-13T10:54:48;1.40;;;1.17;;
3006;SDS011;1513;47.650;10.720;2022-09-13T10:57:53;1.10;;;1.00;;
3006;SDS011;1513;47.650;10.720;2022-09-13T11:14:45;1.10;;;0.73;;
3006;SDS011;1513;47.650;10.720;2022-09-13T11:32:12;0.93;;;0.70;;
3006;SDS011;1513;47.650;10.720;2022-09-13T11:50:24;0.93;;;0.60;;
3006;SDS011;1513;47.650;10.720;2022-09-13T11:57:10;0.60;;;0.60;;
3006;SDS011;1513;47.650;10.720;2022-09-13T12:00:22;1.80;;;0.90;;
3006;SDS011;1513;47.650;10.720;2022-09-13T12:06:44;2.33;;;0.80;;
3006;SDS011;1513;47.650;10.720;2022-09-13T12:10:02;0.63;;;0.63;;
3006;SDS011;1513;47.650;10.720;2022-09-13T12:13:14;0.50;;;0.50;;
3006;SDS011;1513;47.650;10.720;2022-09-13T12:16:33;0.60;;;0.60;;
3006;SDS011;1513;47.650;10.720;2022-09-13T12:19:57;0.60;;;0.60;;
3006;SDS011;1513;47.650;10.720;2022-09-13T12:23:04;0.80;;;0.80;;
3006;SDS011;1513;47.650;10.720;2022-09-13T12:26:19;1.87;;;0.73;;
3006;SDS011;1513;47.650;10.720;2022-09-13T12:33:14;0.70;;;0.70;;
3006;SDS011;1513;47.650;10.720;2022-09-13T12:36:43;2.20;;;0.90;;
3006;SDS011;1513;47.650;10.720;2022-09-13T12:43:26;0.77;;;0.77;;
3006;SDS011;1513;47.650;10.720;2022-09-13T13:01:25;0.70;;;0.70;;
3006;SDS011;1513;47.650;10.720;2022-09-13T13:04:33;1.43;;;0.90;;
3006;SDS011;1513;47.650;10.720;2022-09-13T13:07:38;1.17;;;1.13;;
3006;SDS011;1513;47.650;10.720;2022-09-13T13:10:58;0.83;;;0.80;;
3006;SDS011;1513;47.650;10.720;2022-09-13T13:14:04;0.90;;;0.90;;
3006;SDS011;1513;47.650;10.720;2022-09-13T13:21:02;0.67;;;0.67;;
3006;SDS011;1513;47.650;10.720;2022-09-13T13:27:39;1.00;;;0.90;;
3006;SDS011;1513;47.650;10.720;2022-09-13T13:30:52;0.70;;;0.70;;
3006;SDS011;1513;47.650;10.720;2022-09-13T13:40:22;3.60;;;0.80;;
3006;SDS011;1513;47.650;10.720;2022-09-13T13:43:31;0.67;;;0.67;;
3006;SDS011;1513;47.650;10.720;2022-09-13T13:46:35;1.13;;;0.70;;
3006;SDS011;1513;47.650;10.720;2022-09-13T13:56:03;0.80;;;0.80;;
3006;SDS011;1513;47.650;10.720;2022-09-13T13:59:27;1.10;;;1.10;;
3006;SDS011;1513;47.650;10.720;2022-09-13T14:02:38;2.30;;;0.73;;
3006;SDS011;1513;47.650;10.720;2022-09-13T14:19:23;0.60;;;0.60;;
3006;SDS011;1513;47.650;10.720;2022-09-13T14:22:39;1.17;;;0.80;;
3006;SDS011;1513;47.650;10.720;2022-09-13T14:25:43;0.90;;;0.87;;
3006;SDS011;1513;47.650;10.720;2022-09-13T14:28:47;1.10;;;0.83;;
3006;SDS011;1513;47.650;10.720;2022-09-13T14:31:51;2.67;;;1.17;;
3006;SDS011;1513;47.650;10.720;2022-09-13T14:34:58;0.80;;;0.80;;
3006;SDS011;1513;47.650;10.720;2022-09-13T14:41:36;0.60;;;0.60;;
3006;SDS011;1513;47.650;10.720;2022-09-13T14:44:43;1.67;;;0.70;;
3006;SDS011;1513;47.650;10.720;2022-09-13T14:47:56;0.80;;;0.80;;
3006;SDS011;1513;47.650;10.720;2022-09-13T14:57:33;2.30;;;0.90;;
3006;SDS011;1513;47.650;10.720;2022-09-13T15:00:44;0.80;;;0.80;;
3006;SDS011;1513;47.650;10.720;2022-09-13T15:03:53;3.50;;;0.67;;
3006;SDS011;1513;47.650;10.720;2022-09-13T15:07:05;1.60;;;0.90;;
3006;SDS011;1513;47.650;10.720;2022-09-13T15:10:22;1.53;;;0.80;;
3006;SDS011;1513;47.650;10.720;2022-09-13T15:13:26;1.40;;;1.30;;
3006;SDS011;1513;47.650;10.720;2022-09-13T15:16:30;3.90;;;0.70;;
3006;SDS011;1513;47.650;10.720;2022-09-13T15:19:41;1.10;;;0.63;;
3006;SDS011;1513;47.650;10.720;2022-09-13T15:22:45;0.70;;;0.70;;
3006;SDS011;1513;47.650;10.720;2022-09-13T15:25:51;0.70;;;0.70;;
3006;SDS011;1513;47.650;10.720;2022-09-13T15:29:04;6.73;;;1.40;;
3006;SDS011;1513;47.650;10.720;2022-09-13T15:32:20;1.10;;;0.90;;
3006;SDS011;1513;47.650;10.720;2022-09-13T15:35:34;2.80;;;1.10;;
3006;SDS011;1513;47.650;10.720;2022-09-13T15:38:59;0.60;;;0.60;;
3006;SDS011;1513;47.650;10.720;2022-09-13T15:42:05;0.83;;;0.67;;
3006;SDS011;1513;47.650;10.720;2022-09-13T15:45:09;0.70;;;0.67;;
3006;SDS011;1513;47.650;10.720;2022-09-13T15:48:24;0.70;;;0.70;;
3006;SDS011;1513;47.650;10.720;2022-09-13T15:51:33;4.73;;;1.20;;
3006;SDS011;1513;47.650;10.720;2022-09-13T15:54:38;0.97;;;0.87;;
3006;SDS011;1513;47.650;10.720;2022-09-13T15:57:43;1.70;;;1.03;;
3006;SDS011;1513;47.650;10.720;2022-09-13T16:00:47;0.90;;;0.90;;
3006;SDS011;1513;47.650;10.720;2022-09-13T16:03:51;1.23;;;0.90;;
3006;SDS011;1513;47.650;10.720;2022-09-13T16:06:55;2.57;;;1.10;;
3006;SDS011;1513;47.650;10.720;2022-09-13T16:09:58;2.83;;;1.00;;
3006;SDS011;1513;47.650;10.720;2022-09-13T16:13:03;1.23;;;1.00;;
3006;SDS011;1513;47.650;10.720;2022-09-13T16:16:09;1.10;;;1.00;;
3006;SDS011;1513;47.650;10.720;2022-09-13T16:19:18;2.20;;;1.30;;
3006;SDS011;1513;47.650;10.720;2022-09-13T16:22:23;1.53;;;1.30;;
3006;SDS011;1513;47.650;10.720;2022-09-13T16:25:26;3.33;;;1.37;;
3006;SDS011;1513;47.650;10.720;2022-09-13T16:28:30;3.33;;;1.93;;
3006;SDS011;1513;47.650;10.720;2022-09-13T16:31:33;1.87;;;1.60;;
3006;SDS011;1513;47.650;10.720;2022-09-13T16:34:37;1.77;;;1.67;;
3006;SDS011;1513;47.650;10.720;2022-09-13T16:37:41;2.27;;;1.70;;
3006;SDS011;1513;47.650;10.720;2022-09-13T16:40:45;5.77;;;1.93;;
3006;SDS011;1513;47.650;10.720;2022-09-13T16:43:50;6.00;;;1.60;;
3006;SDS011;1513;47.650;10.720;2022-09-13T16:46:55;2.07;;;1.60;;
3006;SDS011;1513;47.650;10.720;2022-09-13T16:49:59;1.70;;;1.60;;
3006;SDS011;1513;47.650;10.720;2022-09-13T16:53:03;2.10;;;1.70;;
3006;SDS011;1513;47.650;10.720;2022-09-13T16:56:08;3.73;;;1.90;;
3006;SDS011;1513;47.650;10.720;2022-09-13T16:59:13;2.60;;;1.50;;
3006;SDS011;1513;47.650;10.720;2022-09-13T17:02:17;1.80;;;1.70;;
3006;SDS011;1513;47.650;10.720;2022-09-13T17:05:22;2.63;;;2.40;;
3006;SDS011;1513;47.650;10.720;2022-09-13T17:08:26;1.77;;;1.67;;
3006;SDS011;1513;47.650;10.720;2022-09-13T17:11:31;6.30;;;1.90;;
3006;SDS011;1513;47.650;10.720;2022-09-13T17:14:40;4.27;;;2.20;;
3006;SDS011;1513;47.650;10.720;2022-09-13T17:17:44;2.63;;;1.90;;
3006;SDS011;1513;47.650;10.720;2022-09-13T17:20:48;2.20;;;2.00;;
3006;SDS011;1513;47.650;10.720;2022-09-13T17:23:52;2.07;;;1.87;;
3006;SDS011;1513;47.650;10.720;2022-09-13T17:26:57;4.43;;;2.00;;
3006;SDS011;1513;47.650;10.720;2022-09-13T17:30:01;3.50;;;2.10;;
3006;SDS011;1513;47.650;10.720;2022-09-13T17:33:06;3.23;;;1.90;;
3006;SDS011;1513;47.650;10.720;2022-09-13T17:36:11;2.30;;;2.10;;
3006;SDS011;1513;47.650;10.720;2022-09-13T17:39:15;2.40;;;1.80;;
3006;SDS011;1513;47.650;10.720;2022-09-13T17:42:19;6.13;;;2.00;;
3006;SDS011;1513;47.650;10.720;2022-09-13T17:45:23;5.00;;;2.00;;
3006;SDS011;1513;47.650;10.720;2022-09-13T17:48:27;2.53;;;1.87;;
3006;SDS011;1513;47.650;10.720;2022-09-13T17:51:31;2.53;;;2.33;;
3006;SDS011;1513;47.650;10.720;2022-09-13T17:54:35;8.90;;;2.30;;
3006;SDS011;1513;47.650;10.720;2022-09-13T17:57:38;2.17;;;1.97;;
3006;SDS011;1513;47.650;10.720;2022-09-13T18:00:42;2.10;;;1.70;;
3006;SDS011;1513;47.650;10.720;2022-09-13T18:03:45;2.83;;;1.73;;
3006;SDS011;1513;47.650;10.720;2022-09-13T18:06:50;6.40;;;2.20;;
3006;SDS011;1513;47.650;10.720;2022-09-13T18:09:54;2.43;;;2.10;;
3006;SDS011;1513;47.650;10.720;2022-09-13T18:12:58;3.00;;;2.40;;
3006;SDS011;1513;47.650;10.720;2022-09-13T18:16:03;4.13;;;2.70;;
3006;SDS011;1513;47.650;10.720;2022-09-13T18:19:09;3.17;;;2.40;;
3006;SDS011;1513;47.650;10.720;2022-09-13T18:22:12;2.97;;;2.07;;
3006;SDS011;1513;47.650;10.720;2022-09-13T18:25:16;3.20;;;2.30;;
3006;SDS011;1513;47.650;10.720;2022-09-13T18:28:25;3.93;;;2.00;;
3006;SDS011;1513;47.650;10.720;2022-09-13T18:31:31;3.10;;;2.23;;
3006;SDS011;1513;47.650;10.720;2022-09-13T18:34:35;4.30;;;1.80;;
3006;SDS011;1513;47.650;10.720;2022-09-13T18:37:38;2.73;;;1.97;;
3006;SDS011;1513;47.650;10.720;2022-09-13T18:40:42;3.63;;;2.00;;
3006;SDS011;1513;47.650;10.720;2022-09-13T18:43:46;2.60;;;2.20;;
3006;SDS011;1513;47.650;10.720;2022-09-13T18:46:51;6.33;;;2.57;;
3006;SDS011;1513;47.650;10.720;2022-09-13T18:49:56;1.90;;;1.80;;
3006;SDS011;1513;47.650;10.720;2022-09-13T18:53:00;1.67;;;1.57;;
3006;SDS011;1513;47.650;10.720;2022-09-13T18:56:05;3.20;;;1.80;;
3006;SDS011;1513;47.650;10.720;2022-09-13T18:59:11;2.03;;;1.83;;
3006;SDS011;1513;47.650;10.720;2022-09-13T19:02:15;3.73;;;2.20;;
3006;SDS011;1513;47.650;10.720;2022-09-13T19:05:19;3.37;;;2.03;;
3006;SDS011;1513;47.650;10.720;2022-09-13T19:08:23;2.20;;;2.00;;
3006;SDS011;1513;47.650;10.720;2022-09-13T19:11:30;2.57;;;1.80;;
3006;SDS011;1513;47.650;10.720;2022-09-13T19:14:36;2.33;;;2.20;;
3006;SDS011;1513;47.650;10.720;2022-09-13T19:17:40;3.97;;;2.77;;
3006;SDS011;1513;47.650;10.720;2022-09-13T19:20:44;4.40;;;3.00;;
3006;SDS011;1513;47.650;10.720;2022-09-13T19:23:48;8.10;;;3.13;;
3006;SDS011;1513;47.650;10.720;2022-09-13T19:26:53;5.60;;;2.90;;
3006;SDS011;1513;47.650;10.720;2022-09-13T19:29:57;3.60;;;2.67;;
3006;SDS011;1513;47.650;10.720;2022-09-13T19:33:01;3.43;;;2.67;;
3006;SDS011;1513;47.650;10.720;2022-09-13T19:36:07;5.20;;;2.30;;
3006;SDS011;1513;47.650;10.720;2022-09-13T19:39:19;2.30;;;2.10;;
3006;SDS011;1513;47.650;10.720;2022-09-13T19:42:23;3.50;;;2.93;;
3006;SDS011;1513;47.650;10.720;2022-09-13T19:45:27;3.20;;;2.27;;
3006;SDS011;1513;47.650;10.720;2022-09-13T19:48:35;5.03;;;2.13;;
3006;SDS011;1513;47.650;10.720;2022-09-13T19:51:43;3.40;;;2.13;;
3006;SDS011;1513;47.650;10.720;2022-09-13T19:54:48;3.03;;;2.33;;
3006;SDS011;1513;47.650;10.720;2022-09-13T19:57:53;4.50;;;2.77;;
3006;SDS011;1513;47.650;10.720;2022-09-13T20:01:01;3.10;;;2.43;;
3006;SDS011;1513;47.650;10.720;2022-09-13T20:04:13;3.20;;;2.80;;
3006;SDS011;1513;47.650;10.720;2022-09-13T20:07:18;3.10;;;2.80;;
3006;SDS011;1513;47.650;10.720;2022-09-13T20:10:22;5.33;;;2.17;;
3006;SDS011;1513;47.650;10.720;2022-09-13T20:13:27;3.60;;;2.20;;
3006;SDS011;1513;47.650;10.720;2022-09-13T20:16:32;2.10;;;1.90;;
3006;SDS011;1513;47.650;10.720;2022-09-13T20:19:37;3.40;;;2.70;;
3006;SDS011;1513;47.650;10.720;2022-09-13T20:22:41;3.37;;;2.60;;
3006;SDS011;1513;47.650;10.720;2022-09-13T20:25:45;3.10;;;2.60;;
3006;SDS011;1513;47.650;10.720;2022-09-13T20:28:52;6.10;;;2.57;;
3006;SDS011;1513;47.650;10.720;2022-09-13T20:31:59;2.20;;;2.10;;
3006;SDS011;1513;47.650;10.720;2022-09-13T20:35:03;3.53;;;2.63;;
3006;SDS011;1513;47.650;10.720;2022-09-13T20:38:07;4.90;;;2.07;;
3006;SDS011;1513;47.650;10.720;2022-09-13T20:41:11;3.93;;;2.30;;
3006;SDS011;1513;47.650;10.720;2022-09-13T20:44:15;3.40;;;2.80;;
3006;SDS011;1513;47.650;10.720;2022-09-13T20:47:19;2.53;;;2.30;;
3006;SDS011;1513;47.650;10.720;2022-09-13T20:50:23;2.90;;;2.00;;
3006;SDS011;1513;47.650;10.720;2022-09-13T20:53:26;10.47;;;3.87;;
3006;SDS011;1513;47.650;10.720;2022-09-13T20:56:31;6.20;;;3.70;;
3006;SDS011;1513;47.650;10.720;2022-09-13T20:59:35;6.63;;;3.63;;
3006;SDS011;1513;47.650;10.720;2022-09-13T21:02:39;3.43;;;2.90;;
3006;SDS011;1513;47.650;10.720;2022-09-13T21:05:43;7.33;;;3.30;;
3006;SDS011;1513;47.650;10.720;2022-09-13T21:08:47;3.20;;;2.40;;
3006;SDS011;1513;47.650;10.720;2022-09-13T21:11:51;3.33;;;2.30;;
3006;SDS011;1513;47.650;10.720;2022-09-13T21:14:55;2.70;;;2.30;;
3006;SDS011;1513;47.650;10.720;2022-09-13T21:17:58;2.50;;;2.40;;
3006;SDS011;1513;47.650;10.720;2022-09-13T21:21:02;4.40;;;2.27;;
3006;SDS011;1513;47.650;10.720;2022-09-13T21:24:07;2.10;;;1.90;;
3006;SDS011;1513;47.650;10.720;2022-09-13T21:27:13;3.07;;;2.30;;
3006;SDS011;1513;47.650;10.720;2022-09-13T21:30:17;4.20;;;2.27;;
3006;SDS011;1513;47.650;10.720;2022-09-13T21:33:20;2.80;;;2.13;;
3006;SDS011;1513;47.650;10.720;2022-09-13T21:36:24;6.03;;;2.27;;
3006;SDS011;1513;47.650;10.720;2022-09-13T21:39:29;6.40;;;2.10;;
3006;SDS011;1513;47.650;10.720;2022-09-13T21:42:32;5.77;;;2.50;;
3006;SDS011;1513;47.650;10.720;2022-09-13T21:45:36;2.13;;;2.03;;
3006;SDS011;1513;47.650;10.720;2022-09-13T21:48:41;3.33;;;2.00;;